createdAt,value
2023-04-02T00:01:22.942Z,96.63
2023-04-02T00:03:54.172Z,99.64
2023-04-02T00:06:45.337Z,100.00
2023-04-02T00:09:15.008Z,100.00
2023-04-02T00:11:44.068Z,100.00
2023-04-02T00:14:22.427Z,100.00
2023-04-02T00:16:48.940Z,99.74
2023-04-02T00:19:21.849Z,97.72
2023-04-02T00:21:49.218Z,96.55
2023-04-02T00:24:17.741Z,95.39
2023-04-02T00:26:46.681Z,94.86
2023-04-02T00:29:15.352Z,93.50
2023-04-02T00:31:44.470Z,92.08
2023-04-02T00:34:18.658Z,92.67
2023-04-02T00:36:46.617Z,94.20
2023-04-02T00:39:19.043Z,99.29
2023-04-02T00:41:46.870Z,100.00
2023-04-02T00:44:15.057Z,100.00
2023-04-02T00:46:49.578Z,100.00
2023-04-02T00:49:22.905Z,100.00
2023-04-02T00:51:56.602Z,100.00
2023-04-02T00:54:25.664Z,100.00
2023-04-02T00:56:54.980Z,100.00
2023-04-02T00:59:34.042Z,100.00
2023-04-02T01:02:22.382Z,100.00
2023-04-02T01:04:54.512Z,99.53
2023-04-02T01:07:45.491Z,97.81
2023-04-02T01:10:17.576Z,97.63
2023-04-02T01:13:17.922Z,97.38
2023-04-02T01:15:53.831Z,96.09
2023-04-02T01:18:39.777Z,94.68
2023-04-02T01:21:30.926Z,94.39
2023-04-02T01:24:06.341Z,94.78
2023-04-02T01:26:53.880Z,94.39
2023-04-02T01:29:30.183Z,93.92
2023-04-02T01:32:01.634Z,93.47
2023-04-02T01:34:28.888Z,94.83
2023-04-02T01:37:06.583Z,94.82
2023-04-02T01:40:06.634Z,93.41
2023-04-02T01:43:04.068Z,94.02
2023-04-02T01:45:31.576Z,93.74
2023-04-02T01:47:58.588Z,90.72
2023-04-02T01:50:37.001Z,90.57
2023-04-02T01:53:07.134Z,91.82
2023-04-02T01:55:44.217Z,91.55
2023-04-02T01:58:12.124Z,92.58
2023-04-02T02:00:46.098Z,91.62
2023-04-02T02:03:12.955Z,91.83
2023-04-02T02:05:39.549Z,91.75
2023-04-02T02:08:08.498Z,92.31
2023-04-02T02:10:36.841Z,91.87
2023-04-02T02:13:03.719Z,92.24
2023-04-02T02:15:34.254Z,91.54
2023-04-02T02:18:04.523Z,91.37
2023-04-02T02:20:32.321Z,93.19
2023-04-02T02:23:00.194Z,92.28
2023-04-02T02:25:33.007Z,93.37
2023-04-02T02:28:18.723Z,90.75
2023-04-02T02:30:47.927Z,91.01
2023-04-02T02:33:39.550Z,90.14
2023-04-02T02:36:16.150Z,90.82
2023-04-02T02:38:49.333Z,91.51
2023-04-02T02:41:45.268Z,90.34
2023-04-02T02:44:18.144Z,91.12
2023-04-02T02:46:48.552Z,91.00
2023-04-02T02:49:22.604Z,91.82
2023-04-02T02:52:16.675Z,90.73
2023-04-02T02:54:56.818Z,90.76
2023-04-02T02:57:28.721Z,90.59
2023-04-02T02:59:57.494Z,91.17
2023-04-02T03:02:25.341Z,92.15
2023-04-02T03:04:53.873Z,91.54
2023-04-02T03:07:25.580Z,92.60
2023-04-02T03:09:59.238Z,93.80
2023-04-02T03:12:41.586Z,94.31
2023-04-02T03:15:12.621Z,92.09
2023-04-02T03:17:54.811Z,91.89
2023-04-02T03:21:01.158Z,92.61
2023-04-02T03:23:30.815Z,92.16
2023-04-02T03:26:08.094Z,92.51
2023-04-02T03:28:39.684Z,93.40
2023-04-02T03:31:09.157Z,92.25
2023-04-02T03:33:55.820Z,92.38
2023-04-02T03:36:25.737Z,91.43
2023-04-02T03:39:11.752Z,92.42
2023-04-02T03:41:42.868Z,92.24
2023-04-02T03:44:25.556Z,92.59
2023-04-02T03:46:59.295Z,91.41
2023-04-02T03:49:38.856Z,91.83
2023-04-02T03:52:13.781Z,91.84
2023-04-02T03:54:53.967Z,91.48
2023-04-02T03:57:36.475Z,93.06
2023-04-02T04:00:08.639Z,92.91
2023-04-02T04:02:41.379Z,92.45
2023-04-02T04:05:19.924Z,92.70
2023-04-02T04:07:46.686Z,92.71
2023-04-02T04:10:24.866Z,92.87
2023-04-02T04:12:52.647Z,93.51
2023-04-02T04:15:24.901Z,93.06
2023-04-02T04:18:04.374Z,92.69
2023-04-02T04:20:45.880Z,92.06
2023-04-02T04:23:25.776Z,92.47
2023-04-02T04:26:31.078Z,92.71
2023-04-02T04:29:38.277Z,93.40
2023-04-02T04:32:27.525Z,91.98
2023-04-02T04:35:23.940Z,92.40
2023-04-02T04:37:58.637Z,91.49
2023-04-02T04:40:28.502Z,91.74
2023-04-02T04:42:59.251Z,91.19
2023-04-02T04:45:54.582Z,91.69
2023-04-02T04:48:28.159Z,91.10
2023-04-02T04:50:56.024Z,91.98
2023-04-02T04:53:25.125Z,91.37
2023-04-02T04:56:16.068Z,92.04
2023-04-02T04:59:06.779Z,91.66
2023-04-02T05:01:47.485Z,91.23
2023-04-02T05:04:36.123Z,91.18
2023-04-02T05:07:10.599Z,91.77
2023-04-02T05:09:44.270Z,91.93
2023-04-02T05:12:17.130Z,92.67
2023-04-02T05:14:52.883Z,93.75
2023-04-02T05:17:21.126Z,93.56
2023-04-02T05:19:52.026Z,93.11
2023-04-02T05:22:40.239Z,93.20
2023-04-02T05:25:19.009Z,94.53
2023-04-02T05:28:01.083Z,93.76
2023-04-02T05:30:27.543Z,94.08
2023-04-02T05:33:05.188Z,94.98
2023-04-02T05:35:34.941Z,94.74
2023-04-02T05:38:02.363Z,94.18
2023-04-02T05:40:36.334Z,94.71
2023-04-02T05:43:03.860Z,93.98
2023-04-02T05:45:39.064Z,94.19
2023-04-02T05:48:18.873Z,94.82
2023-04-02T05:50:49.566Z,94.34
2023-04-02T05:53:21.509Z,94.01
2023-04-02T05:56:00.456Z,93.25
2023-04-02T05:58:48.480Z,93.73
2023-04-02T06:01:37.655Z,94.55
2023-04-02T06:04:16.292Z,94.99
2023-04-02T06:06:46.986Z,95.03
2023-04-02T06:09:19.901Z,94.70
2023-04-02T06:11:52.176Z,95.45
2023-04-02T06:14:18.777Z,93.80
2023-04-02T06:16:46.139Z,93.63
2023-04-02T06:19:29.475Z,93.62
2023-04-02T06:22:00.674Z,92.85
2023-04-02T06:24:29.239Z,92.63
2023-04-02T06:27:02.952Z,93.28
2023-04-02T06:29:39.790Z,93.44
2023-04-02T06:32:08.383Z,92.57
2023-04-02T06:34:38.261Z,92.68
2023-04-02T06:37:21.501Z,93.37
2023-04-02T06:39:48.714Z,92.96
2023-04-02T06:42:21.756Z,92.12
2023-04-02T06:44:48.513Z,91.38
2023-04-02T06:47:42.858Z,92.14
2023-04-02T06:50:40.502Z,91.94
2023-04-02T06:53:12.942Z,92.85
2023-04-02T06:55:56.098Z,91.98
2023-04-02T06:58:22.696Z,92.60
2023-04-02T07:00:50.773Z,91.91
2023-04-02T07:03:26.178Z,92.08
2023-04-02T07:05:52.968Z,92.25
2023-04-02T07:08:19.750Z,92.07
2023-04-02T07:10:46.699Z,91.18
2023-04-02T07:13:16.535Z,91.70
2023-04-02T07:15:45.139Z,91.60
2023-04-02T07:18:23.141Z,91.02
2023-04-02T07:20:50.117Z,90.11
2023-04-02T07:23:17.522Z,89.08
2023-04-02T07:25:44.346Z,89.21
2023-04-02T07:28:12.290Z,89.81
2023-04-02T07:30:38.832Z,88.95
2023-04-02T07:33:05.652Z,89.42
2023-04-02T07:35:32.451Z,89.86
2023-04-02T07:37:59.072Z,88.82
2023-04-02T07:40:25.792Z,88.93
2023-04-02T07:42:52.773Z,89.75
2023-04-02T07:45:19.371Z,88.38
2023-04-02T07:47:51.060Z,89.15
2023-04-02T07:50:18.050Z,89.18
2023-04-02T07:52:44.639Z,88.94
2023-04-02T07:55:12.885Z,88.93
2023-04-02T07:57:54.548Z,87.59
2023-04-02T08:00:22.587Z,88.47
2023-04-02T08:02:49.295Z,88.71
2023-04-02T08:05:15.875Z,88.89
2023-04-02T08:07:42.648Z,88.79
2023-04-02T08:10:11.467Z,88.25
2023-04-02T08:12:38.279Z,88.46
2023-04-02T08:15:06.968Z,88.50
2023-04-02T08:17:37.658Z,87.60
2023-04-02T08:20:09.062Z,86.96
2023-04-02T08:22:36.911Z,87.68
2023-04-02T08:25:10.704Z,87.32
2023-04-02T08:27:37.396Z,87.06
2023-04-02T08:30:04.522Z,87.14
2023-04-02T08:32:31.190Z,86.21
2023-04-02T08:34:57.783Z,85.26
2023-04-02T08:37:24.630Z,85.82
2023-04-02T08:39:51.091Z,86.22
2023-04-02T08:42:37.696Z,85.59
2023-04-02T08:45:37.149Z,85.39
2023-04-02T08:48:05.514Z,84.60
2023-04-02T08:50:39.990Z,84.08
2023-04-02T08:53:34.296Z,83.67
2023-04-02T08:56:17.840Z,83.14
2023-04-02T08:58:50.384Z,83.63
2023-04-02T09:01:32.789Z,82.21
2023-04-02T09:04:05.578Z,81.76
2023-04-02T09:06:34.758Z,80.52
2023-04-02T09:09:01.453Z,80.61
2023-04-02T09:11:54.055Z,81.13
2023-04-02T09:14:27.477Z,79.47
2023-04-02T09:16:56.464Z,77.84
2023-04-02T09:19:25.821Z,73.97
2023-04-02T09:22:06.518Z,74.45
2023-04-02T09:24:33.526Z,72.22
2023-04-02T09:27:00.102Z,73.04
2023-04-02T09:29:38.983Z,74.66
2023-04-02T09:32:08.608Z,72.07
2023-04-02T09:34:36.557Z,69.78
2023-04-02T09:37:15.110Z,70.06
2023-04-02T09:39:41.597Z,68.64
2023-04-02T09:42:11.910Z,67.11
2023-04-02T09:44:39.925Z,67.92
2023-04-02T09:47:23.971Z,67.71
2023-04-02T09:49:51.800Z,67.87
2023-04-02T09:52:27.873Z,67.40
2023-04-02T09:55:22.525Z,67.65
2023-04-02T09:57:51.990Z,67.75
2023-04-02T10:00:39.704Z,65.67
2023-04-02T10:03:28.564Z,65.09
2023-04-02T10:06:24.164Z,65.03
2023-04-02T10:08:53.411Z,62.82
2023-04-02T10:11:24.277Z,62.78
2023-04-02T10:14:04.945Z,63.05
2023-04-02T10:17:30.315Z,62.23
2023-04-02T10:20:02.625Z,60.81
2023-04-02T10:22:29.374Z,63.18
2023-04-02T10:24:58.541Z,62.70
2023-04-02T10:27:48.980Z,60.87
2023-04-02T10:30:26.224Z,60.61
2023-04-02T10:33:01.361Z,58.78
2023-04-02T10:35:41.798Z,59.04
2023-04-02T10:38:32.123Z,58.86
2023-04-02T10:41:07.643Z,58.16
2023-04-02T10:44:01.043Z,59.06
2023-04-02T10:46:49.842Z,57.56
2023-04-02T10:49:48.905Z,57.97
2023-04-02T10:52:31.344Z,56.38
2023-04-02T10:55:10.292Z,58.41
2023-04-02T10:57:40.463Z,56.75
2023-04-02T11:00:09.236Z,57.47
2023-04-02T11:03:03.155Z,55.50
2023-04-02T11:05:45.599Z,56.21
2023-04-02T11:08:23.184Z,58.43
2023-04-02T11:10:54.738Z,57.75
2023-04-02T11:13:49.423Z,56.43
2023-04-02T11:16:16.200Z,71.26
2023-04-02T11:18:44.787Z,65.42
2023-04-02T11:21:29.781Z,55.21
2023-04-02T11:23:59.048Z,54.77
2023-04-02T11:26:41.464Z,55.92
2023-04-02T11:29:21.694Z,56.47
2023-04-02T11:31:54.664Z,57.72
2023-04-02T11:35:03.105Z,57.65
2023-04-02T11:37:35.560Z,58.08
2023-04-02T11:40:40.580Z,57.55
2023-04-02T11:43:37.847Z,57.59
2023-04-02T11:46:16.637Z,57.54
2023-04-02T11:48:43.368Z,56.80
2023-04-02T11:51:24.529Z,58.32
2023-04-02T11:53:53.902Z,58.16
2023-04-02T11:56:33.736Z,57.28
2023-04-02T11:59:00.289Z,58.84
2023-04-02T12:01:48.350Z,57.63
2023-04-02T12:04:46.017Z,57.92
2023-04-02T12:07:46.751Z,56.90
2023-04-02T12:10:21.917Z,58.39
2023-04-02T12:12:49.308Z,58.35
2023-04-02T12:15:41.555Z,57.60
2023-04-02T12:18:16.943Z,55.58
2023-04-02T12:20:49.069Z,56.13
2023-04-02T12:23:19.177Z,56.02
2023-04-02T12:25:54.319Z,55.65
2023-04-02T12:28:22.332Z,56.49
2023-04-02T12:30:50.614Z,56.07
2023-04-02T12:33:20.164Z,56.80
2023-04-02T12:35:47.077Z,56.08
2023-04-02T12:38:22.327Z,55.23
2023-04-02T12:41:21.490Z,55.86
2023-04-02T12:43:57.316Z,54.38
2023-04-02T12:46:26.044Z,55.22
2023-04-02T12:48:54.370Z,55.04
2023-04-02T12:51:21.276Z,56.08
2023-04-02T12:53:52.528Z,54.91
2023-04-02T12:56:21.585Z,54.80
2023-04-02T12:58:59.287Z,55.70
2023-04-02T13:01:28.312Z,56.20
2023-04-02T13:04:12.452Z,56.65
2023-04-02T13:06:42.435Z,55.08
2023-04-02T13:09:30.939Z,55.74
2023-04-02T13:11:58.088Z,55.84
2023-04-02T13:14:24.870Z,56.12
2023-04-02T13:16:51.490Z,56.15
2023-04-02T13:19:17.924Z,54.79
2023-04-02T13:21:46.094Z,54.50
2023-04-02T13:24:27.696Z,55.07
2023-04-02T13:26:56.642Z,54.61
2023-04-02T13:29:28.451Z,55.89
2023-04-02T13:32:00.982Z,56.21
2023-04-02T13:34:28.363Z,55.90
2023-04-02T13:36:55.089Z,55.42
2023-04-02T13:39:21.846Z,56.77
2023-04-02T13:41:51.563Z,58.47
2023-04-02T13:44:25.940Z,58.18
2023-04-02T13:46:53.717Z,57.99
2023-04-02T13:49:21.037Z,58.93
2023-04-02T13:51:52.861Z,58.72
2023-04-02T13:54:27.353Z,57.92
2023-04-02T13:56:55.948Z,58.59
2023-04-02T13:59:22.632Z,56.46
2023-04-02T14:01:50.232Z,58.19
2023-04-02T14:04:22.288Z,58.09
2023-04-02T14:06:49.388Z,57.86
2023-04-02T14:09:36.918Z,58.33
2023-04-02T14:12:41.843Z,57.97
2023-04-02T14:15:14.331Z,57.90
2023-04-02T14:18:08.359Z,57.87
2023-04-02T14:21:13.914Z,70.28
2023-04-02T14:23:52.634Z,65.64
2023-04-02T14:26:43.475Z,64.57
2023-04-02T14:29:53.991Z,54.10
2023-04-02T14:32:27.253Z,57.45
2023-04-02T14:35:15.773Z,59.54
2023-04-02T14:38:08.612Z,58.49
2023-04-02T14:41:01.243Z,59.78
2023-04-02T14:43:53.155Z,60.13
2023-04-02T14:46:19.954Z,59.97
2023-04-02T14:48:47.763Z,60.58
2023-04-02T14:51:24.876Z,60.94
2023-04-02T14:54:14.428Z,62.58
2023-04-02T14:56:48.083Z,61.68
2023-04-02T14:59:23.264Z,62.12
2023-04-02T15:01:54.639Z,62.19
2023-04-02T15:04:28.014Z,63.20
2023-04-02T15:07:01.918Z,62.30
2023-04-02T15:09:42.777Z,62.91
2023-04-02T15:12:13.907Z,63.47
2023-04-02T15:14:49.080Z,64.43
2023-04-02T15:17:15.970Z,66.14
2023-04-02T15:19:42.466Z,67.45
2023-04-02T15:22:27.226Z,67.21
2023-04-02T15:25:27.641Z,68.30
2023-04-02T15:28:27.002Z,67.71
2023-04-02T15:30:58.600Z,68.63
2023-04-02T15:46:43.934Z,70.49
2023-04-02T15:49:21.882Z,70.74
2023-04-02T15:52:33.281Z,69.84
2023-04-02T15:55:56.815Z,70.57
2023-04-02T15:58:35.599Z,70.95
2023-04-02T16:01:11.597Z,71.05
2023-04-02T16:03:46.191Z,71.90
2023-04-02T16:06:32.409Z,71.49
2023-04-02T16:09:06.785Z,71.96
2023-04-02T16:11:34.221Z,73.04
2023-04-02T16:17:28.458Z,74.57
2023-04-02T16:20:04.586Z,74.72
2023-04-02T16:22:33.861Z,74.92
2023-04-02T16:25:22.871Z,75.13
2023-04-02T16:28:29.010Z,75.39
2023-04-02T16:31:08.617Z,75.33
2023-04-02T16:33:48.525Z,76.09
2023-04-02T16:36:30.407Z,75.19
2023-04-02T16:39:25.109Z,75.19
2023-04-02T16:42:14.507Z,76.54
2023-04-02T16:44:51.870Z,76.30
2023-04-02T16:47:58.402Z,76.16
2023-04-02T16:50:39.341Z,75.13
2023-04-02T16:53:17.865Z,74.41
2023-04-02T16:56:09.605Z,74.80
2023-04-02T16:58:50.524Z,74.07
2023-04-02T17:01:39.526Z,74.84
2023-04-02T17:04:42.178Z,75.37
2023-04-02T17:07:44.540Z,75.89
2023-04-02T18:06:42.695Z,72.65
2023-04-02T18:09:27.187Z,73.05
2023-04-02T18:12:03.939Z,72.98
2023-04-02T18:14:52.007Z,73.21
2023-04-02T18:17:30.654Z,74.17
2023-04-02T18:20:07.883Z,74.19
2023-04-02T18:22:44.112Z,74.06
2023-04-02T18:25:25.515Z,71.94
2023-04-02T18:28:14.929Z,72.21
2023-04-02T18:30:58.869Z,72.81
2023-04-02T18:34:03.927Z,73.60
2023-04-02T18:36:50.949Z,73.35
2023-04-02T18:39:32.621Z,75.07
2023-04-02T18:42:16.119Z,74.41
2023-04-02T18:44:58.931Z,73.67
2023-04-02T18:47:34.626Z,73.50
2023-04-02T18:50:19.198Z,73.53
2023-04-02T18:52:46.278Z,73.19
2023-04-02T18:55:22.075Z,71.28
2023-04-02T18:57:52.620Z,71.59
2023-04-02T19:00:35.135Z,72.30
2023-04-02T19:03:31.899Z,74.78
2023-04-02T19:06:29.743Z,75.55
2023-04-02T19:08:56.478Z,76.02
2023-04-02T19:11:31.299Z,75.15
2023-04-02T19:14:02.965Z,73.46
2023-04-02T19:16:48.457Z,72.79
2023-04-02T19:19:28.085Z,73.37
2023-04-02T19:22:33.687Z,74.56
2023-04-02T19:25:27.405Z,74.38
2023-04-02T19:28:07.828Z,75.15
2023-04-02T19:30:51.867Z,74.97
2023-04-02T19:33:50.820Z,74.49
2023-04-02T19:36:41.695Z,73.57
2023-04-02T19:39:42.430Z,73.31
2023-04-02T19:42:18.555Z,74.46
2023-04-02T19:44:48.456Z,75.88
2023-04-02T19:47:16.821Z,76.47
2023-04-02T19:49:43.477Z,75.90
2023-04-02T19:52:10.060Z,76.07
2023-04-02T19:54:39.302Z,76.33
2023-04-02T19:57:06.124Z,76.08
2023-04-02T19:59:33.132Z,76.26
2023-04-02T20:02:02.055Z,76.32
2023-04-02T20:04:28.779Z,75.23
2023-04-02T20:06:55.478Z,74.99
2023-04-02T20:09:22.326Z,75.05
2023-04-02T20:11:48.968Z,75.43
2023-04-02T20:14:16.630Z,75.57
2023-04-02T20:16:44.618Z,76.70
2023-04-02T20:19:12.570Z,76.22
2023-04-02T20:21:40.623Z,76.27
2023-04-02T20:24:07.875Z,75.96
2023-04-02T20:26:36.132Z,75.64
2023-04-02T20:29:02.702Z,75.81
2023-04-02T20:31:30.601Z,76.17
2023-04-02T20:33:58.765Z,75.93
2023-04-02T20:36:26.000Z,78.19
2023-04-02T20:38:52.734Z,79.37
2023-04-02T20:41:19.717Z,79.39
2023-04-02T20:43:46.276Z,79.67
2023-04-02T20:46:13.097Z,79.22
2023-04-02T20:48:41.599Z,80.46
2023-04-02T20:51:09.930Z,79.15
2023-04-02T20:53:40.246Z,78.27
2023-04-02T20:56:11.073Z,78.11
2023-04-02T20:58:39.980Z,77.89
2023-04-02T21:01:20.127Z,77.91
2023-04-02T21:03:46.781Z,79.06
2023-04-02T21:06:15.129Z,78.00
2023-04-02T21:08:41.978Z,77.92
2023-04-02T21:11:08.869Z,77.13
2023-04-02T21:13:36.776Z,76.89
2023-04-02T21:16:22.118Z,77.16
2023-04-02T21:18:52.857Z,78.47
2023-04-02T21:21:19.929Z,79.41
2023-04-02T21:23:46.647Z,80.53
2023-04-02T21:26:16.282Z,80.84
2023-04-02T21:28:44.029Z,78.93
2023-04-02T21:31:14.943Z,78.35
2023-04-02T21:33:43.593Z,78.47
2023-04-02T21:36:17.626Z,79.34
2023-04-02T21:38:59.251Z,79.76
2023-04-02T21:41:26.650Z,80.98
2023-04-02T21:43:54.197Z,80.61
2023-04-02T21:46:23.087Z,80.69
2023-04-02T21:48:53.391Z,81.38
2023-04-02T21:51:22.731Z,82.61
2023-04-02T21:53:49.618Z,82.61
2023-04-02T21:56:21.629Z,82.42
2023-04-02T21:58:51.429Z,82.15
2023-04-02T22:01:26.571Z,82.45
2023-04-02T22:04:03.060Z,81.62
2023-04-02T22:06:34.463Z,80.39
2023-04-02T22:09:05.254Z,80.75
2023-04-02T22:11:37.971Z,81.55
2023-04-02T22:14:06.145Z,81.86
2023-04-02T22:16:34.314Z,82.59
2023-04-02T22:19:03.230Z,81.97
2023-04-02T22:21:31.021Z,80.64
2023-04-02T22:24:00.954Z,80.92
2023-04-02T22:26:29.705Z,81.50
2023-04-02T22:28:56.220Z,81.98
2023-04-02T22:31:24.850Z,82.46
2023-04-02T22:33:52.175Z,83.40
2023-04-02T22:36:19.629Z,82.97
2023-04-02T22:38:46.279Z,82.43
2023-04-02T22:41:17.075Z,82.20
2023-04-02T22:43:44.618Z,82.47
2023-04-02T22:46:13.218Z,82.51
2023-04-02T22:48:39.998Z,82.26
2023-04-02T22:51:11.432Z,83.17
2023-04-02T22:53:38.935Z,83.39
2023-04-02T22:56:16.492Z,83.65
2023-04-02T22:58:43.220Z,83.74
2023-04-02T23:01:26.645Z,83.37
2023-04-02T23:03:54.564Z,83.05
2023-04-02T23:06:21.865Z,83.67
2023-04-02T23:08:48.423Z,84.24
2023-04-02T23:11:18.446Z,82.81
2023-04-02T23:13:47.250Z,83.03
2023-04-02T23:16:21.230Z,83.14
2023-04-02T23:18:49.452Z,83.40
2023-04-02T23:21:18.064Z,82.21
2023-04-02T23:23:45.934Z,83.50
2023-04-02T23:26:22.013Z,83.04
2023-04-02T23:28:49.523Z,82.03
2023-04-02T23:31:18.991Z,81.56
2023-04-02T23:33:45.951Z,81.12
2023-04-02T23:36:18.604Z,80.30
2023-04-02T23:38:45.217Z,80.03
2023-04-02T23:41:17.097Z,81.32
2023-04-02T23:43:44.083Z,80.40
2023-04-02T23:46:10.693Z,79.00
2023-04-02T23:48:37.406Z,77.88
2023-04-02T23:51:04.294Z,78.30
2023-04-02T23:53:31.251Z,76.53
2023-04-02T23:55:57.744Z,76.00
2023-04-02T23:58:24.216Z,76.06
